createdAt,value
2023-02-25T00:01:38.963Z,98652.72
2023-02-25T00:04:05.820Z,98656.59
2023-02-25T00:06:32.851Z,98661.03
2023-02-25T00:08:59.750Z,98658.59
2023-02-25T00:11:27.043Z,98662.56
2023-02-25T00:13:54.193Z,98664.00
2023-02-25T00:16:24.961Z,98662.03
2023-02-25T00:18:55.677Z,98674.44
2023-02-25T00:21:23.956Z,98670.34
2023-02-25T00:23:51.321Z,98671.16
2023-02-25T00:26:18.565Z,98668.94
2023-02-25T00:28:46.455Z,98667.94
2023-02-25T00:31:17.132Z,98669.16
2023-02-25T00:33:45.402Z,98666.88
2023-02-25T00:36:15.466Z,98663.88
2023-02-25T00:38:42.236Z,98667.00
2023-02-25T00:41:11.592Z,98672.38
2023-02-25T00:43:40.825Z,98673.25
2023-02-25T00:46:11.841Z,98673.44
2023-02-25T00:48:39.400Z,98669.78
2023-02-25T00:51:11.361Z,98669.16
2023-02-25T00:53:39.197Z,98675.16
2023-02-25T00:56:08.839Z,98677.63
2023-02-25T00:58:36.789Z,98679.72
2023-02-25T01:01:05.107Z,98676.66
2023-02-25T01:03:32.527Z,98682.41
2023-02-25T01:05:59.367Z,98674.72
2023-02-25T01:08:27.744Z,98668.56
2023-02-25T01:10:54.501Z,98670.06
2023-02-25T01:13:21.379Z,98676.44
2023-02-25T01:15:48.161Z,98675.44
2023-02-25T01:18:15.958Z,98675.81
2023-02-25T01:20:42.815Z,98667.72
2023-02-25T01:23:09.583Z,98666.53
2023-02-25T01:25:40.870Z,98668.81
2023-02-25T01:28:08.164Z,98671.25
2023-02-25T01:30:37.347Z,98670.06
2023-02-25T01:33:04.750Z,98684.47
2023-02-25T01:35:31.548Z,98680.31
2023-02-25T01:37:58.413Z,98687.78
2023-02-25T01:40:25.763Z,98685.25
2023-02-25T01:42:53.923Z,98697.59
2023-02-25T01:45:30.396Z,98701.22
2023-02-25T01:48:14.864Z,98701.63
2023-02-25T01:50:51.000Z,98698.53
2023-02-25T01:53:42.532Z,98698.31
2023-02-25T01:56:12.691Z,98696.50
2023-02-25T01:58:42.476Z,98694.03
2023-02-25T02:01:17.772Z,98691.34
2023-02-25T02:03:48.409Z,98698.78
2023-02-25T02:06:19.680Z,98704.97
2023-02-25T02:08:49.310Z,98702.28
2023-02-25T02:11:17.064Z,98698.31
2023-02-25T02:13:49.855Z,98695.66
2023-02-25T02:16:39.151Z,98699.19
2023-02-25T02:19:33.252Z,98700.66
2023-02-25T02:22:11.553Z,98712.28
2023-02-25T02:25:30.742Z,98705.72
2023-02-25T02:28:26.611Z,98718.13
2023-02-25T02:31:31.438Z,98727.22
2023-02-25T02:34:15.974Z,98731.16
2023-02-25T02:36:58.640Z,98729.28
2023-02-25T02:39:41.865Z,98732.16
2023-02-25T02:42:17.979Z,98732.16
2023-02-25T02:44:56.103Z,98728.84
2023-02-25T02:47:31.932Z,98737.31
2023-02-25T02:50:05.982Z,98742.47
2023-02-25T02:52:40.741Z,98742.06
2023-02-25T02:55:26.596Z,98743.13
2023-02-25T02:58:03.071Z,98743.31
2023-02-25T03:00:39.766Z,98756.94
2023-02-25T03:03:14.827Z,98763.09
2023-02-25T03:05:49.178Z,98757.16
2023-02-25T03:08:25.429Z,98749.28
2023-02-25T03:10:52.480Z,98760.25
2023-02-25T03:13:21.947Z,98761.06
2023-02-25T03:15:51.636Z,98759.41
2023-02-25T03:18:32.493Z,98750.75
2023-02-25T03:21:06.167Z,98765.59
2023-02-25T03:23:39.321Z,98758.78
2023-02-25T03:26:17.719Z,98761.88
2023-02-25T03:28:46.332Z,98754.06
2023-02-25T03:31:22.430Z,98749.94
2023-02-25T03:33:57.657Z,98750.72
2023-02-25T03:36:31.066Z,98744.53
2023-02-25T03:39:13.853Z,98747.03
2023-02-25T03:41:46.547Z,98745.16
2023-02-25T03:44:20.630Z,98748.66
2023-02-25T03:46:48.521Z,98751.94
2023-02-25T03:49:27.016Z,98753.81
2023-02-25T03:51:58.557Z,98766.38
2023-02-25T03:54:25.660Z,98757.53
2023-02-25T03:56:52.594Z,98761.84
2023-02-25T03:59:20.430Z,98768.03
2023-02-25T04:01:51.936Z,98769.28
2023-02-25T04:04:20.480Z,98774.84
2023-02-25T04:06:47.905Z,98769.69
2023-02-25T04:09:15.019Z,98774.22
2023-02-25T04:11:42.373Z,98771.75
2023-02-25T04:14:09.178Z,98769.88
2023-02-25T04:16:36.254Z,98773.59
2023-02-25T04:19:03.252Z,98782.88
2023-02-25T04:21:34.915Z,98783.28
2023-02-25T04:24:02.960Z,98774.22
2023-02-25T04:26:29.865Z,98781.63
2023-02-25T04:28:57.482Z,98788.63
2023-02-25T04:31:24.831Z,98791.94
2023-02-25T04:33:51.797Z,98786.16
2023-02-25T04:36:25.165Z,98785.16
2023-02-25T04:38:54.610Z,98799.41
2023-02-25T04:41:21.590Z,98803.50
2023-02-25T04:43:48.502Z,98808.47
2023-02-25T04:46:15.324Z,98804.75
2023-02-25T04:48:42.108Z,98805.38
2023-02-25T04:51:09.318Z,98806.19
2023-02-25T04:53:36.841Z,98808.03
2023-02-25T04:56:08.705Z,98805.81
2023-02-25T04:58:37.553Z,98819.00
2023-02-25T05:01:07.509Z,98809.28
2023-02-25T05:03:35.578Z,98798.16
2023-02-25T05:06:03.848Z,98802.50
2023-02-25T05:08:30.998Z,98803.09
2023-02-25T05:10:57.857Z,98803.09
2023-02-25T05:13:28.702Z,98808.47
2023-02-25T05:16:05.341Z,98810.13
2023-02-25T05:18:32.483Z,98806.41
2023-02-25T05:20:59.292Z,98796.31
2023-02-25T05:23:26.656Z,98799.97
2023-02-25T05:25:53.474Z,98804.31
2023-02-25T05:28:20.214Z,98798.16
2023-02-25T05:30:48.846Z,98802.09
2023-02-25T05:33:16.168Z,98802.66
2023-02-25T05:35:43.158Z,98793.59
2023-02-25T05:38:10.275Z,98794.88
2023-02-25T05:40:38.822Z,98794.88
2023-02-25T05:43:05.885Z,98795.25
2023-02-25T05:45:32.724Z,98802.72
2023-02-25T05:48:01.083Z,98800.63
2023-02-25T05:50:27.856Z,98788.84
2023-02-25T05:52:54.658Z,98789.25
2023-02-25T05:55:21.467Z,98794.22
2023-02-25T05:57:48.234Z,98795.88
2023-02-25T06:00:16.631Z,98791.38
2023-02-25T06:02:43.559Z,98795.66
2023-02-25T06:05:11.737Z,98801.63
2023-02-25T06:07:39.039Z,98798.97
2023-02-25T06:10:07.197Z,98806.38
2023-02-25T06:12:34.810Z,98808.84
2023-02-25T06:15:01.654Z,98807.00
2023-02-25T06:17:28.505Z,98812.53
2023-02-25T06:19:55.510Z,98826.00
2023-02-25T06:22:23.854Z,98820.78
2023-02-25T06:24:50.576Z,98818.53
2023-02-25T06:27:17.404Z,98818.09
2023-02-25T06:29:47.980Z,98820.59
2023-02-25T06:32:15.617Z,98823.69
2023-02-25T06:34:42.784Z,98824.34
2023-02-25T06:37:09.634Z,98814.22
2023-02-25T06:39:37.855Z,98819.38
2023-02-25T06:42:05.200Z,98815.03
2023-02-25T06:44:31.979Z,98818.75
2023-02-25T06:46:58.754Z,98824.09
2023-02-25T06:49:25.560Z,98829.63
2023-02-25T06:51:52.515Z,98833.38
2023-02-25T06:54:19.655Z,98836.88
2023-02-25T06:56:47.762Z,98839.16
2023-02-25T06:59:14.544Z,98836.88
2023-02-25T07:01:41.612Z,98837.69
2023-02-25T07:04:15.165Z,98850.25
2023-02-25T07:06:42.045Z,98850.91
2023-02-25T07:09:09.139Z,98855.84
2023-02-25T07:11:35.985Z,98863.25
2023-02-25T07:14:06.384Z,98864.09
2023-02-25T07:16:33.463Z,98856.72
2023-02-25T07:19:01.410Z,98858.97
2023-02-25T07:21:30.168Z,98858.56
2023-02-25T07:23:57.827Z,98850.97
2023-02-25T07:26:26.115Z,98857.56
2023-02-25T07:28:53.088Z,98854.25
2023-02-25T07:31:23.083Z,98850.13
2023-02-25T07:33:51.601Z,98857.53
2023-02-25T07:36:18.580Z,98852.59
2023-02-25T07:38:46.452Z,98858.78
2023-02-25T07:41:16.587Z,98848.06
2023-02-25T07:43:44.233Z,98853.84
2023-02-25T07:46:12.473Z,98846.84
2023-02-25T07:48:41.098Z,98854.03
2023-02-25T07:51:11.633Z,98857.97
2023-02-25T07:53:39.400Z,98857.56
2023-02-25T07:56:08.196Z,98860.25
2023-02-25T07:58:36.251Z,98861.69
2023-02-25T08:01:08.702Z,98858.38
2023-02-25T08:03:35.750Z,98866.66
2023-02-25T08:06:05.018Z,98851.78
2023-02-25T08:08:57.440Z,98855.91
2023-02-25T08:11:26.615Z,98851.38
2023-02-25T08:13:54.851Z,98857.56
2023-02-25T08:16:22.566Z,98853.63
2023-02-25T08:18:49.574Z,98865.59
2023-02-25T08:21:22.045Z,98868.50
2023-02-25T08:23:49.270Z,98862.72
2023-02-25T08:26:17.055Z,98858.16
2023-02-25T08:28:45.383Z,98852.19
2023-02-25T08:31:13.090Z,98852.19
2023-02-25T08:33:44.544Z,98853.44
2023-02-25T08:36:14.608Z,98853.59
2023-02-25T08:38:43.408Z,98858.16
2023-02-25T08:41:10.575Z,98866.03
2023-02-25T08:43:37.988Z,98863.56
2023-02-25T08:46:05.697Z,98860.03
2023-02-25T08:48:33.345Z,98861.88
2023-02-25T08:51:04.566Z,98859.00
2023-02-25T08:53:31.460Z,98854.69
2023-02-25T08:56:03.610Z,98850.72
2023-02-25T08:58:31.940Z,98859.19
2023-02-25T09:00:59.551Z,98864.97
2023-02-25T09:03:26.443Z,98863.94
2023-02-25T09:05:55.021Z,98870.72
2023-02-25T09:08:22.574Z,98870.31
2023-02-25T09:10:50.892Z,98866.63
2023-02-25T09:13:19.391Z,98870.31
2023-02-25T09:15:46.506Z,98871.31
2023-02-25T09:18:13.367Z,98860.38
2023-02-25T09:20:40.148Z,98865.31
2023-02-25T09:23:07.001Z,98865.75
2023-02-25T09:25:33.992Z,98871.53
2023-02-25T09:28:00.999Z,98875.63
2023-02-25T09:30:30.006Z,98868.63
2023-02-25T09:32:57.810Z,98862.84
2023-02-25T09:35:24.748Z,98853.75
2023-02-25T09:37:51.874Z,98861.75
2023-02-25T09:40:20.483Z,98861.72
2023-02-25T09:43:03.373Z,98863.78
2023-02-25T09:45:34.385Z,98859.84
2023-02-25T09:48:13.197Z,98859.84
2023-02-25T09:50:47.562Z,98860.66
2023-02-25T09:53:21.667Z,98859.41
2023-02-25T09:55:51.426Z,98867.28
2023-02-25T09:58:30.466Z,98861.25
2023-02-25T10:01:06.720Z,98858.19
2023-02-25T10:03:58.075Z,98860.63
2023-02-25T10:06:35.411Z,98859.41
2023-02-25T10:09:15.201Z,98864.69
2023-02-25T10:11:52.476Z,98865.06
2023-02-25T10:14:57.482Z,98870.25
2023-02-25T10:17:39.673Z,98860.75
2023-02-25T10:20:40.571Z,98865.06
2023-02-25T10:23:28.207Z,98862.72
2023-02-25T10:26:02.630Z,98849.78
2023-02-25T10:28:31.325Z,98851.63
2023-02-25T10:31:05.329Z,98846.91
2023-02-25T10:33:39.918Z,98857.09
2023-02-25T10:36:14.265Z,98853.63
2023-02-25T10:38:46.181Z,98850.53
2023-02-25T10:41:14.096Z,98850.72
2023-02-25T10:43:41.992Z,98850.69
2023-02-25T10:46:18.667Z,98850.66
2023-02-25T10:48:57.292Z,98843.56
2023-02-25T10:51:25.628Z,98850.13
2023-02-25T10:54:14.341Z,98843.84
2023-02-25T10:56:45.679Z,98841.41
2023-02-25T10:59:30.155Z,98842.44
2023-02-25T11:02:00.589Z,98844.81
2023-02-25T11:04:38.770Z,98844.06
2023-02-25T11:07:35.187Z,98842.66
2023-02-25T11:10:13.931Z,98846.56
2023-02-25T11:12:43.228Z,98841.22
2023-02-25T11:15:44.182Z,98843.69
2023-02-25T11:18:22.716Z,98851.69
2023-02-25T11:20:55.868Z,98842.84
2023-02-25T11:23:35.781Z,98852.97
2023-02-25T11:26:04.521Z,98852.63
2023-02-25T11:28:38.159Z,98848.94
2023-02-25T11:31:15.883Z,98855.31
2023-02-25T11:33:50.176Z,98846.09
2023-02-25T11:36:24.352Z,98856.84
2023-02-25T11:39:13.992Z,98862.47
2023-02-25T11:41:41.096Z,98872.16
2023-02-25T11:44:21.798Z,98875.88
2023-02-25T11:47:01.187Z,98871.16
2023-02-25T11:50:06.401Z,98860.00
2023-02-25T11:52:44.537Z,98859.38
2023-02-25T11:55:36.180Z,98857.31
2023-02-25T11:58:16.584Z,98855.50
2023-02-25T12:00:56.051Z,98857.53
2023-02-25T12:03:55.768Z,98855.25
2023-02-25T12:06:45.210Z,98858.31
2023-02-25T12:09:58.083Z,98843.63
2023-02-25T12:13:32.891Z,98841.31
2023-02-25T12:17:12.160Z,98849.44
2023-02-25T12:20:35.987Z,98842.50
2023-02-25T12:24:07.588Z,98844.63
2023-02-25T12:27:07.860Z,98828.06
2023-02-25T12:30:06.323Z,98832.19
2023-02-25T12:32:57.747Z,98824.31
2023-02-25T12:35:55.253Z,98822.38
2023-02-25T12:39:12.980Z,98829.28
2023-02-25T12:41:47.515Z,98822.78
2023-02-25T12:44:53.091Z,98812.44
2023-02-25T12:47:56.957Z,98803.91
2023-02-25T12:50:44.530Z,98811.03
2023-02-25T12:53:29.702Z,98824.19
2023-02-25T12:56:18.791Z,98821.88
2023-02-25T12:59:13.832Z,98813.66
2023-02-25T13:02:34.195Z,98815.22
2023-02-25T13:05:25.768Z,98811.53
2023-02-25T13:08:27.709Z,98811.53
2023-02-25T13:11:05.597Z,98800.56
2023-02-25T13:14:04.724Z,98796.38
2023-02-25T13:16:53.906Z,98798.06
2023-02-25T13:20:08.932Z,98798.22
2023-02-25T13:22:57.796Z,98796.25
2023-02-25T13:25:49.789Z,98784.09
2023-02-25T13:28:37.487Z,98787.53
2023-02-25T13:31:18.881Z,98793.97
2023-02-25T13:34:02.641Z,98787.97
2023-02-25T13:37:13.721Z,98793.00
2023-02-25T13:40:04.452Z,98785.22
2023-02-25T13:42:55.355Z,98780.00
2023-02-25T13:45:50.008Z,98787.84
2023-02-25T13:48:49.096Z,98779.91
2023-02-25T13:51:46.059Z,98777.06
2023-02-25T13:54:55.816Z,98766.38
2023-02-25T13:57:52.953Z,98755.63
2023-02-25T14:00:38.537Z,98760.28
2023-02-25T14:03:53.360Z,98759.94
2023-02-25T14:06:45.376Z,98764.72
2023-02-25T14:09:37.753Z,98771.72
2023-02-25T14:12:23.762Z,98772.75
2023-02-25T14:19:26.054Z,98777.34
2023-02-25T14:22:23.867Z,98771.84
2023-02-25T14:25:03.378Z,98775.59
2023-02-25T14:27:45.420Z,98770.41
2023-02-25T14:30:26.187Z,98779.78
2023-02-25T14:33:20.033Z,98774.56
2023-02-25T14:36:13.112Z,98772.03
2023-02-25T14:39:05.968Z,98782.66
2023-02-25T14:41:53.733Z,98790.66
2023-02-25T14:44:34.014Z,98788.94
2023-02-25T14:47:10.157Z,98787.44
2023-02-25T14:49:49.500Z,98784.16
2023-02-25T14:52:57.242Z,98789.38
2023-02-25T14:55:58.427Z,98800.75
2023-02-25T14:58:53.400Z,98799.81
2023-02-25T15:01:59.108Z,98815.00
2023-02-25T15:05:12.149Z,98837.38
2023-02-25T15:08:21.193Z,98843.09
2023-02-25T15:11:13.678Z,98850.69
2023-02-25T15:14:08.010Z,98862.69
2023-02-25T15:17:25.441Z,98881.09
2023-02-25T15:20:16.167Z,98883.97
2023-02-25T15:23:04.658Z,98882.66
2023-02-25T15:26:20.196Z,98857.13
2023-02-25T15:28:48.556Z,98849.28
2023-02-25T15:31:35.926Z,98852.16
2023-02-25T15:34:33.557Z,98850.53
2023-02-25T15:37:26.340Z,98845.16
2023-02-25T15:39:57.523Z,98850.53
2023-02-25T15:42:48.555Z,98852.59
2023-02-25T15:45:40.274Z,98847.84
2023-02-25T15:48:34.701Z,98860.25
2023-02-25T15:51:08.817Z,98856.13
2023-02-25T15:53:44.165Z,98862.53
2023-02-25T15:56:52.486Z,98863.75
2023-02-25T15:59:44.341Z,98869.53
2023-02-25T16:02:41.457Z,98872.81
2023-02-25T16:05:39.782Z,98872.63
2023-02-25T16:08:30.237Z,98879.44
2023-02-25T16:15:35.364Z,98887.06
2023-02-25T16:18:38.253Z,98883.75
2023-02-25T16:21:15.458Z,98892.44
2023-02-25T16:23:53.937Z,98891.81
2023-02-25T16:27:27.056Z,98900.88
2023-02-25T16:30:27.331Z,98905.84
2023-02-25T16:33:46.611Z,98911.63
2023-02-25T16:37:11.747Z,98913.47
2023-02-25T16:39:39.689Z,98921.09
2023-02-25T16:42:13.965Z,98928.13
2023-02-25T16:44:55.018Z,98975.16
2023-02-25T16:51:29.548Z,98986.72
2023-02-25T16:54:03.564Z,99002.22
2023-02-25T16:56:33.083Z,98993.25
2023-02-25T16:59:06.693Z,98992.69
2023-02-25T17:01:37.107Z,99011.25
2023-02-25T17:04:16.404Z,99001.94
2023-02-25T17:06:43.367Z,99000.09
2023-02-25T17:09:23.684Z,99012.81
2023-02-25T17:11:56.300Z,99015.47
2023-02-25T17:14:25.714Z,99018.03
2023-02-25T17:16:53.441Z,99027.41
2023-02-25T17:19:24.326Z,99026.69
2023-02-25T17:21:56.211Z,99025.94
2023-02-25T17:24:28.820Z,99032.16
2023-02-25T17:26:56.018Z,99030.06
2023-02-25T17:29:34.742Z,99032.34
2023-02-25T17:32:19.097Z,99039.88
2023-02-25T17:34:51.011Z,99049.63
2023-02-25T17:37:20.175Z,99046.13
2023-02-25T17:39:48.629Z,99059.88
2023-02-25T17:42:32.466Z,99069.53
2023-02-25T17:45:02.020Z,99067.94
2023-02-25T17:47:32.645Z,99066.41
2023-02-25T17:50:21.511Z,99073.63
2023-02-25T17:52:49.301Z,99074.75
2023-02-25T17:55:25.838Z,99076.84
2023-02-25T17:57:58.352Z,99075.81
2023-02-25T18:00:30.687Z,99077.47
2023-02-25T18:03:16.449Z,99080.59
2023-02-25T18:05:52.731Z,99080.22
2023-02-25T18:08:22.760Z,99087.88
2023-02-25T18:11:02.414Z,99083.38
2023-02-25T18:13:35.995Z,99096.34
2023-02-25T18:16:39.723Z,99097.22
2023-02-25T18:19:25.707Z,99099.50
2023-02-25T18:21:54.779Z,99103.44
2023-02-25T18:24:25.672Z,99102.88
2023-02-25T18:27:24.115Z,99109.00
2023-02-25T18:29:50.941Z,99102.84
2023-02-25T18:32:17.850Z,99109.44
2023-02-25T18:34:45.638Z,99114.41
2023-02-25T18:37:18.035Z,99108.22
2023-02-25T18:39:47.355Z,99112.41
2023-02-25T18:42:16.908Z,99110.53
2023-02-25T18:44:46.038Z,99109.00
2023-02-25T18:47:12.968Z,99115.94
2023-02-25T18:49:40.421Z,99116.41
2023-02-25T18:52:20.252Z,99122.34
2023-02-25T18:54:47.866Z,99124.53
2023-02-25T18:57:20.646Z,99132.56
2023-02-25T18:59:47.572Z,99127.22
2023-02-25T19:02:27.341Z,99129.59
2023-02-25T19:04:55.185Z,99126.88
2023-02-25T19:07:26.604Z,99132.41
2023-02-25T19:09:54.681Z,99135.53
2023-02-25T19:12:23.913Z,99135.25
2023-02-25T19:14:58.838Z,99136.44
2023-02-25T19:17:27.896Z,99134.63
2023-02-25T19:19:56.302Z,99140.31
2023-02-25T19:22:25.638Z,99132.50
2023-02-25T19:24:53.180Z,99149.88
2023-02-25T19:27:24.331Z,99144.63
2023-02-25T19:29:54.535Z,99148.28
2023-02-25T19:32:22.128Z,99157.88
2023-02-25T19:34:49.654Z,99156.78
2023-02-25T19:37:19.128Z,99163.59
2023-02-25T19:39:47.880Z,99169.22
2023-02-25T19:42:15.319Z,99166.56
2023-02-25T19:44:42.268Z,99175.22
2023-02-25T19:47:09.476Z,99182.41
2023-02-25T19:49:36.490Z,99192.41
2023-02-25T19:52:04.274Z,99187.84
2023-02-25T19:54:33.490Z,99189.50
2023-02-25T19:57:01.845Z,99199.09
2023-02-25T19:59:30.774Z,99201.66
2023-02-25T20:01:57.718Z,99205.72
2023-02-25T20:04:25.798Z,99203.41
2023-02-25T20:06:57.143Z,99201.75
2023-02-25T20:09:24.474Z,99213.06
2023-02-25T20:11:51.589Z,99215.47
2023-02-25T20:14:25.654Z,99218.88
2023-02-25T20:16:53.307Z,99218.59
2023-02-25T20:19:20.729Z,99233.53
2023-02-25T20:26:08.766Z,99234.19
2023-02-25T20:28:36.845Z,99234.72
2023-02-25T20:31:08.059Z,99244.88
2023-02-25T20:33:37.436Z,99241.16
2023-02-25T20:36:20.226Z,99242.47
2023-02-25T20:39:24.678Z,99254.88
2023-02-25T20:41:52.045Z,99257.66
2023-02-25T20:44:19.185Z,99258.66
2023-02-25T20:46:49.208Z,99266.09
2023-02-25T20:49:20.074Z,99270.66
2023-02-25T20:51:48.909Z,99274.75
2023-02-25T20:54:18.399Z,99281.34
2023-02-25T20:56:47.635Z,99275.66
2023-02-25T20:59:16.157Z,99287.13
2023-02-25T21:01:44.356Z,99289.63
2023-02-25T21:04:14.157Z,99298.00
2023-02-25T21:06:41.050Z,99289.97
2023-02-25T21:09:09.881Z,99284.53
2023-02-25T21:11:37.112Z,99287.69
2023-02-25T21:14:04.293Z,99289.34
2023-02-25T21:16:31.198Z,99302.88
2023-02-25T21:18:58.631Z,99288.69
2023-02-25T21:21:27.170Z,99292.19
2023-02-25T21:23:53.973Z,99292.00
2023-02-25T21:26:22.116Z,99296.59
2023-02-25T21:28:49.072Z,99296.59
2023-02-25T21:31:16.789Z,99302.09
2023-02-25T21:33:44.000Z,99300.38
2023-02-25T21:36:16.511Z,99305.63
2023-02-25T21:49:57.993Z,99317.16
2023-02-25T21:52:24.976Z,99317.56
2023-02-25T21:54:51.883Z,99315.78
2023-02-25T22:02:01.473Z,99312.56
2023-02-25T22:05:47.133Z,99324.16
2023-02-25T22:08:33.750Z,99318.00
2023-02-25T22:11:51.861Z,99317.94
2023-02-25T22:14:19.451Z,99324.69
2023-02-25T22:16:48.367Z,99321.28
2023-02-25T22:23:47.661Z,99335.50
2023-02-25T22:26:23.136Z,99342.25
2023-02-25T22:28:54.572Z,99339.38
2023-02-25T22:31:22.557Z,99341.09
2023-02-25T22:33:50.274Z,99343.09
2023-02-25T22:36:19.369Z,99348.16
2023-02-25T22:38:51.293Z,99351.00
2023-02-25T22:41:27.699Z,99361.19
2023-02-25T22:43:57.252Z,99352.03
2023-02-25T22:46:27.886Z,99355.88
2023-02-25T22:48:58.512Z,99345.44
2023-02-25T22:51:29.162Z,99352.91
2023-02-25T22:53:58.018Z,99361.56
2023-02-25T22:56:26.270Z,99354.59
2023-02-25T22:58:54.078Z,99360.59
2023-02-25T23:01:44.375Z,99362.06
2023-02-25T23:04:11.354Z,99361.25
2023-02-25T23:06:44.057Z,99369.09
2023-02-25T23:09:15.003Z,99370.06
2023-02-25T23:11:44.277Z,99365.25
2023-02-25T23:14:14.644Z,99367.75
2023-02-25T23:16:44.920Z,99365.09
2023-02-25T23:19:16.951Z,99361.94
2023-02-25T23:21:44.246Z,99365.81
2023-02-25T23:24:13.827Z,99364.28
2023-02-25T23:26:43.844Z,99366.31
2023-02-25T23:29:24.830Z,99372.00
2023-02-25T23:31:54.584Z,99369.50
2023-02-25T23:34:26.880Z,99375.16
2023-02-25T23:37:30.493Z,99369.34
2023-02-25T23:40:08.132Z,99377.34
2023-02-25T23:42:42.602Z,99370.03
2023-02-25T23:50:26.843Z,99371.38
2023-02-25T23:52:54.500Z,99375.22
2023-02-25T23:55:27.595Z,99376.06
2023-02-25T23:58:54.410Z,99387.41
